KAIA/AIA METAR and TAF weather

Enter ICAO airport designator
Station Type Date Time Source
KAIA METAR 2022/01/19 20:53 UTC NOAA

KAIA 192053Z AUTO 36006KT 10SM OVC110 M12/M16 A3038 RMK AO2 SLP350 T11171161 55004


Station Type Date Time Source
KAIA Decoded METAR 2022/01/19 20:53 UTC NOAA

ALLIANCE MUNICIPAL AIRPORT, NE, United States (KAIA) 42-03N 102-48W 1196M
Jan 19, 2022 - 03:53 PM EST / 2022.01.19 2053 UTC
Wind: from the N (360 degrees) at 7 MPH (6 KT):0
Visibility: 10 mile(s):0
Sky conditions: overcast
Temperature: 10.9 F (-11.7 C)
Windchill: 0 F (-18 C):1
Dew Point: 3.0 F (-16.1 C)
Relative Humidity: 69%
Pressure (altimeter): 30.38 in. Hg (1028 hPa)
Pressure tendency: 0.01 inches (0.4 hPa) lower than three hours ago
ob: KAIA 192053Z AUTO 36006KT 10SM OVC110 M12/M16 A3038 RMK AO2 SLP350 T11171161 55004
cycle: 21

Station Type Date Time Source
KAIA TAF 2022/01/19 18:22 UTC NOAA

TAF KAIA 191720Z 1918/2018 01010KT 3SM -SHSN OVC025
FM192000 36008KT P6SM OVC035
FM200600 15005KT P6SM OVC050

Example: see airport list